PWSweather.com
Personal Weather Stations
Station Observations

SkegnessGB

Lat: 53.147585, Lon: 0.345774

Elevation: 18

Station Type: Fine Offset WH3080

http://www.skegnessweather.info/

High Low Average
Temperature 70.3°F21.3°C 55.4°F13.0°C 61.1°F16.2°C
Dew Point 56.9°F13.8°C 49.2°F9.6°C 53.8°F12.1°C
Winds 15.4 mph 24.8 kmh 3.3 mph 5.3 kmh 9.0 mph S14.5 kmh S
Wind Gusts 18.5 mph29.8 kmh 4.2 mph6.8 kmh 10.0 mph16.1 kmh
Humidity 95% 51% 79%
Pressure 29.83 in1010.2 mb 29.72 in1006.4 mb -
Precipitation 0.09 in2.3 mm - -
Hour Temp Dew Point Humidity Winds Wind Gusts Pressure Precip Precip Rate Daily Precip Total
12:00 AM 58.1°F14.5°C 55.8°F13.2°C 92% 9.5 mph S15.3 kmh S 9.1 mph14.6 kmh 29.72 in1006.4 mb 0.00 in0.0 mm 0.00 in0.0 mm 0.00 in0.0 mm
12:10 AM 58.1°F14.5°C 55.8°F13.2°C 92% 6.9 mph N11.1 kmh N 7.6 mph12.2 kmh 29.73 in1006.8 mb 0.00 in0.0 mm 0.00 in0.0 mm 0.00 in0.0 mm
12:20 AM 57.9°F14.4°C 55.3°F12.9°C 91% 7.0 mph S11.3 kmh S 8.4 mph13.5 kmh 29.72 in1006.4 mb 0.00 in0.0 mm 0.00 in0.0 mm 0.00 in0.0 mm
12:30 AM 57.7°F14.3°C 55.1°F12.8°C 91% 5.7 mph SSE9.2 kmh SSE 6.6 mph10.6 kmh 29.73 in1006.8 mb 0.00 in0.0 mm 0.00 in0.0 mm 0.00 in0.0 mm
12:40 AM 57.7°F14.3°C 55.1°F12.8°C 91% 6.9 mph SSW11.1 kmh SSW 6.6 mph10.6 kmh 29.72 in1006.4 mb 0.00 in0.0 mm 0.00 in0.0 mm 0.00 in0.0 mm
12:50 AM 57.7°F14.3°C 54.8°F12.7°C 90% 9.8 mph S15.8 kmh S 10.8 mph17.4 kmh 29.72 in1006.4 mb 0.00 in0.0 mm 0.00 in0.0 mm 0.00 in0.0 mm
01:00 AM 57.7°F14.3°C 54.8°F12.7°C 90% 8.6 mph SSE13.8 kmh SSE 10.8 mph17.4 kmh 29.73 in1006.8 mb 0.00 in0.0 mm 0.00 in0.0 mm 0.00 in0.0 mm
01:10 AM 57.6°F14.2°C 54.6°F12.6°C 90% 7.4 mph S11.9 kmh S 10.1 mph16.3 kmh 29.72 in1006.4 mb 0.00 in0.0 mm 0.00 in0.0 mm 0.00 in0.0 mm
01:20 AM 57.6°F14.2°C 54.6°F12.6°C 90% 9.0 mph SSE14.5 kmh SSE 10.8 mph17.4 kmh 29.72 in1006.4 mb 0.00 in0.0 mm 0.00 in0.0 mm 0.00 in0.0 mm
01:30 AM 57.4°F14.1°C 54.5°F12.5°C 90% 8.6 mph S13.8 kmh S 11.8 mph19.0 kmh 29.72 in1006.4 mb 0.00 in0.0 mm 0.00 in0.0 mm 0.00 in0.0 mm
01:40 AM 57.4°F14.1°C 54.5°F12.5°C 90% 8.2 mph SE13.2 kmh SE 10.1 mph16.3 kmh 29.72 in1006.4 mb 0.00 in0.0 mm 0.00 in0.0 mm 0.00 in0.0 mm
01:50 AM 57.2°F14.0°C 54.3°F12.4°C 90% 8.4 mph SSE13.5 kmh SSE 9.1 mph14.6 kmh 29.72 in1006.4 mb 0.00 in0.0 mm 0.00 in0.0 mm 0.00 in0.0 mm
02:00 AM 57.0°F13.9°C 53.8°F12.1°C 89% 7.3 mph S11.7 kmh S 9.1 mph14.6 kmh 29.72 in1006.4 mb 0.00 in0.0 mm 0.00 in0.0 mm 0.00 in0.0 mm
02:10 AM 57.0°F13.9°C 53.8°F12.1°C 89% 6.9 mph SSE11.1 kmh SSE 5.9 mph9.5 kmh 29.72 in1006.4 mb 0.00 in0.0 mm 0.00 in0.0 mm 0.00 in0.0 mm
02:20 AM 57.0°F13.9°C 53.8°F12.1°C 89% 7.6 mph SE12.2 kmh SE 8.4 mph13.5 kmh 29.72 in1006.4 mb 0.00 in0.0 mm 0.00 in0.0 mm 0.00 in0.0 mm
02:30 AM 56.8°F13.8°C 53.9°F12.2°C 90% 7.5 mph SSE12.1 kmh SSE 8.4 mph13.5 kmh 29.72 in1006.4 mb 0.00 in0.0 mm 0.00 in0.0 mm 0.00 in0.0 mm
02:40 AM 56.8°F13.8°C 53.9°F12.2°C 90% 8.5 mph SSE13.7 kmh SSE 9.1 mph14.6 kmh 29.73 in1006.8 mb 0.00 in0.0 mm 0.00 in0.0 mm 0.00 in0.0 mm
02:50 AM 56.7°F13.7°C 53.8°F12.1°C 90% 9.7 mph SSE15.6 kmh SSE 10.1 mph16.3 kmh 29.73 in1006.8 mb 0.00 in0.0 mm 0.00 in0.0 mm 0.00 in0.0 mm
03:00 AM 56.7°F13.7°C 53.8°F12.1°C 90% 7.6 mph S12.2 kmh S 9.1 mph14.6 kmh 29.73 in1006.8 mb 0.00 in0.0 mm 0.00 in0.0 mm 0.00 in0.0 mm
03:10 AM 56.5°F13.6°C 53.6°F12.0°C 90% 8.3 mph S13.4 kmh S 8.4 mph13.5 kmh 29.73 in1006.8 mb 0.00 in0.0 mm 0.00 in0.0 mm 0.00 in0.0 mm
03:20 AM 56.5°F13.6°C 53.9°F12.2°C 91% 9.3 mph SSE15.0 kmh SSE 9.1 mph14.6 kmh 29.73 in1006.8 mb 0.00 in0.0 mm 0.00 in0.0 mm 0.00 in0.0 mm
03:30 AM 56.3°F13.5°C 53.7°F12.1°C 91% 8.0 mph S12.9 kmh S 8.4 mph13.5 kmh 29.73 in1006.8 mb 0.00 in0.0 mm 0.00 in0.0 mm 0.00 in0.0 mm
03:40 AM 56.3°F13.5°C 53.7°F12.1°C 91% 6.8 mph SSE10.9 kmh SSE 8.4 mph13.5 kmh 29.74 in1007.1 mb 0.00 in0.0 mm 0.00 in0.0 mm 0.00 in0.0 mm
03:50 AM 55.9°F13.3°C 53.4°F11.9°C 91% 6.3 mph S10.1 kmh S 6.6 mph10.6 kmh 29.73 in1006.8 mb 0.00 in0.0 mm 0.00 in0.0 mm 0.00 in0.0 mm
04:00 AM 55.8°F13.2°C 53.2°F11.8°C 91% 5.7 mph SSE9.2 kmh SSE 6.6 mph10.6 kmh 29.74 in1007.1 mb 0.00 in0.0 mm 0.00 in0.0 mm 0.00 in0.0 mm
04:10 AM 55.8°F13.2°C 53.2°F11.8°C 91% 5.4 mph S8.7 kmh S 5.9 mph9.5 kmh 29.74 in1007.1 mb 0.00 in0.0 mm 0.00 in0.0 mm 0.00 in0.0 mm
04:20 AM 55.8°F13.2°C 53.5°F11.9°C 92% 5.8 mph SSW9.3 kmh SSW 6.6 mph10.6 kmh 29.74 in1007.1 mb 0.00 in0.0 mm 0.00 in0.0 mm 0.00 in0.0 mm
04:30 AM 55.9°F13.3°C 53.6°F12.0°C 92% 6.7 mph S10.8 kmh S 8.4 mph13.5 kmh 29.74 in1007.1 mb 0.00 in0.0 mm 0.00 in0.0 mm 0.00 in0.0 mm
04:40 AM 55.8°F13.2°C 53.5°F11.9°C 92% 6.5 mph SSE10.5 kmh SSE 8.4 mph13.5 kmh 29.75 in1007.5 mb 0.00 in0.0 mm 0.00 in0.0 mm 0.00 in0.0 mm
04:50 AM 55.8°F13.2°C 53.5°F11.9°C 92% 6.0 mph SW9.7 kmh SW 7.6 mph12.2 kmh 29.75 in1007.5 mb 0.00 in0.0 mm 0.00 in0.0 mm 0.00 in0.0 mm
05:00 AM 55.8°F13.2°C 53.5°F11.9°C 92% 5.7 mph S9.2 kmh S 7.6 mph12.2 kmh 29.75 in1007.5 mb 0.00 in0.0 mm 0.00 in0.0 mm 0.00 in0.0 mm
05:10 AM 55.6°F13.1°C 53.3°F11.8°C 92% 5.6 mph SW9.0 kmh SW 4.9 mph7.9 kmh 29.75 in1007.5 mb 0.00 in0.0 mm 0.00 in0.0 mm 0.00 in0.0 mm
05:20 AM 55.4°F13.0°C 53.1°F11.7°C 92% 5.7 mph SSW9.2 kmh SSW 6.6 mph10.6 kmh 29.75 in1007.5 mb 0.00 in0.0 mm 0.00 in0.0 mm 0.00 in0.0 mm
05:30 AM 55.4°F13.0°C 53.1°F11.7°C 92% 5.5 mph WSW8.9 kmh WSW 7.6 mph12.2 kmh 29.75 in1007.5 mb 0.00 in0.0 mm 0.00 in0.0 mm 0.00 in0.0 mm
05:40 AM 55.4°F13.0°C 53.1°F11.7°C 92% 5.2 mph SW8.4 kmh SW 5.9 mph9.5 kmh 29.76 in1007.8 mb 0.00 in0.0 mm 0.00 in0.0 mm 0.00 in0.0 mm
05:50 AM 55.4°F13.0°C 53.1°F11.7°C 92% 4.1 mph SSW6.6 kmh SSW 4.9 mph7.9 kmh 29.76 in1007.8 mb 0.00 in0.0 mm 0.00 in0.0 mm 0.00 in0.0 mm
06:00 AM 55.4°F13.0°C 53.1°F11.7°C 92% 3.7 mph SSE6.0 kmh SSE 4.9 mph7.9 kmh 29.76 in1007.8 mb 0.00 in0.0 mm 0.00 in0.0 mm 0.00 in0.0 mm
06:10 AM 55.6°F13.1°C 53.3°F11.8°C 92% 3.3 mph S5.3 kmh S 4.2 mph6.8 kmh 29.77 in1008.1 mb 0.00 in0.0 mm 0.00 in0.0 mm 0.00 in0.0 mm
06:20 AM 55.6°F13.1°C 53.3°F11.8°C 92% 4.8 mph S7.7 kmh S 7.6 mph12.2 kmh 29.77 in1008.1 mb 0.00 in0.0 mm 0.00 in0.0 mm 0.00 in0.0 mm
06:30 AM 55.8°F13.2°C 53.5°F11.9°C 92% 6.7 mph S10.8 kmh S 10.8 mph17.4 kmh 29.77 in1008.1 mb 0.00 in0.0 mm 0.00 in0.0 mm 0.00 in0.0 mm
06:40 AM 55.9°F13.3°C 53.9°F12.2°C 93% 5.5 mph SSE8.9 kmh SSE 5.9 mph9.5 kmh 29.78 in1008.5 mb 0.00 in0.0 mm 0.00 in0.0 mm 0.00 in0.0 mm
06:50 AM 56.1°F13.4°C 54.1°F12.3°C 93% 5.0 mph S8.0 kmh S 6.6 mph10.6 kmh 29.78 in1008.5 mb 0.00 in0.0 mm 0.00 in0.0 mm 0.00 in0.0 mm
07:00 AM 56.5°F13.6°C 54.2°F12.3°C 92% 6.4 mph S10.3 kmh S 8.4 mph13.5 kmh 29.78 in1008.5 mb 0.00 in0.0 mm 0.00 in0.0 mm 0.00 in0.0 mm
07:10 AM 56.7°F13.7°C 54.4°F12.4°C 92% 6.5 mph SSE10.5 kmh SSE 6.6 mph10.6 kmh 29.78 in1008.5 mb 0.00 in0.0 mm 0.00 in0.0 mm 0.00 in0.0 mm
07:20 AM 56.8°F13.8°C 54.5°F12.5°C 92% 5.9 mph S9.5 kmh S 6.6 mph10.6 kmh 29.78 in1008.5 mb 0.00 in0.0 mm 0.00 in0.0 mm 0.00 in0.0 mm
07:30 AM 56.8°F13.8°C 54.5°F12.5°C 92% 5.7 mph SSW9.2 kmh SSW 7.6 mph12.2 kmh 29.78 in1008.5 mb 0.00 in0.0 mm 0.00 in0.0 mm 0.00 in0.0 mm
07:40 AM 57.2°F14.0°C 54.9°F12.7°C 92% 5.6 mph S9.0 kmh S 8.4 mph13.5 kmh 29.79 in1008.8 mb 0.00 in0.0 mm 0.00 in0.0 mm 0.00 in0.0 mm
07:50 AM 57.7°F14.3°C 55.4°F13.0°C 92% 7.4 mph SSW11.9 kmh SSW 9.1 mph14.6 kmh 29.78 in1008.5 mb 0.00 in0.0 mm 0.00 in0.0 mm 0.00 in0.0 mm
08:00 AM 57.9°F14.4°C 55.6°F13.1°C 92% 8.0 mph S12.9 kmh S 9.1 mph14.6 kmh 29.79 in1008.8 mb 0.00 in0.0 mm 0.00 in0.0 mm 0.00 in0.0 mm
08:10 AM 58.3°F14.6°C 56.0°F13.3°C 92% 5.5 mph SW8.9 kmh SW 7.6 mph12.2 kmh 29.80 in1009.1 mb 0.00 in0.0 mm 0.00 in0.0 mm 0.00 in0.0 mm
08:20 AM 58.6°F14.8°C 56.0°F13.3°C 91% 6.5 mph S10.5 kmh S 8.4 mph13.5 kmh 29.79 in1008.8 mb 0.00 in0.0 mm 0.00 in0.0 mm 0.00 in0.0 mm
08:30 AM 59.0°F15.0°C 56.1°F13.4°C 90% 7.2 mph SSW11.6 kmh SSW 8.4 mph13.5 kmh 29.80 in1009.1 mb 0.00 in0.0 mm 0.00 in0.0 mm 0.00 in0.0 mm
08:40 AM 59.5°F15.3°C 56.0°F13.3°C 88% 6.7 mph SSE10.8 kmh SSE 7.6 mph12.2 kmh 29.80 in1009.1 mb 0.00 in0.0 mm 0.00 in0.0 mm 0.00 in0.0 mm
08:50 AM 60.1°F15.6°C 55.9°F13.3°C 86% 8.2 mph S13.2 kmh S 9.1 mph14.6 kmh 29.81 in1009.5 mb 0.00 in0.0 mm 0.00 in0.0 mm 0.00 in0.0 mm
09:00 AM 60.6°F15.9°C 55.4°F13.0°C 83% 7.7 mph S12.4 kmh S 9.1 mph14.6 kmh 29.80 in1009.1 mb 0.00 in0.0 mm 0.00 in0.0 mm 0.00 in0.0 mm
09:10 AM 61.0°F16.1°C 55.1°F12.8°C 81% 8.1 mph SSW13.0 kmh SSW 9.1 mph14.6 kmh 29.81 in1009.5 mb 0.00 in0.0 mm 0.00 in0.0 mm 0.00 in0.0 mm
09:20 AM 62.6°F17.0°C 54.9°F12.7°C 76% 7.3 mph SSW11.7 kmh SSW 8.4 mph13.5 kmh 29.81 in1009.5 mb 0.00 in0.0 mm 0.00 in0.0 mm 0.00 in0.0 mm
09:30 AM 65.1°F18.4°C 55.1°F12.8°C 70% 7.8 mph S12.6 kmh S 10.8 mph17.4 kmh 29.82 in1009.8 mb 0.00 in0.0 mm 0.00 in0.0 mm 0.00 in0.0 mm
09:40 AM 65.8°F18.8°C 54.6°F12.6°C 67% 8.3 mph SE13.4 kmh SE 9.1 mph14.6 kmh 29.82 in1009.8 mb 0.00 in0.0 mm 0.00 in0.0 mm 0.00 in0.0 mm
09:50 AM 67.5°F19.7°C 54.9°F12.7°C 64% 8.0 mph S12.9 kmh S 6.6 mph10.6 kmh 29.82 in1009.8 mb 0.00 in0.0 mm 0.00 in0.0 mm 0.00 in0.0 mm
10:00 AM 66.7°F19.3°C 54.2°F12.3°C 64% 5.7 mph S9.2 kmh S 7.6 mph12.2 kmh 29.82 in1009.8 mb 0.00 in0.0 mm 0.00 in0.0 mm 0.00 in0.0 mm
10:10 AM 67.1°F19.5°C 54.1°F12.3°C 63% 7.3 mph WSW11.7 kmh WSW 6.6 mph10.6 kmh 29.82 in1009.8 mb 0.00 in0.0 mm 0.00 in0.0 mm 0.00 in0.0 mm
10:20 AM 66.9°F19.4°C 53.9°F12.2°C 63% 7.8 mph SW12.6 kmh SW 9.1 mph14.6 kmh 29.81 in1009.5 mb 0.00 in0.0 mm 0.00 in0.0 mm 0.00 in0.0 mm
10:30 AM 68.0°F20.0°C 54.0°F12.2°C 61% 7.1 mph S11.4 kmh S 8.4 mph13.5 kmh 29.81 in1009.5 mb 0.00 in0.0 mm 0.00 in0.0 mm 0.00 in0.0 mm
10:40 AM 67.5°F19.7°C 54.0°F12.2°C 62% 7.8 mph SW12.6 kmh SW 8.4 mph13.5 kmh 29.82 in1009.8 mb 0.00 in0.0 mm 0.00 in0.0 mm 0.00 in0.0 mm
10:50 AM 67.3°F19.6°C 53.4°F11.9°C 61% 7.5 mph SSW12.1 kmh SSW 10.1 mph16.3 kmh 29.82 in1009.8 mb 0.00 in0.0 mm 0.00 in0.0 mm 0.00 in0.0 mm
11:00 AM 67.1°F19.5°C 53.6°F12.0°C 62% 8.0 mph S12.9 kmh S 9.1 mph14.6 kmh 29.83 in1010.2 mb 0.00 in0.0 mm 0.00 in0.0 mm 0.00 in0.0 mm
11:10 AM 67.8°F19.9°C 53.9°F12.2°C 61% 7.1 mph S11.4 kmh S 9.1 mph14.6 kmh 29.82 in1009.8 mb 0.00 in0.0 mm 0.00 in0.0 mm 0.00 in0.0 mm
11:20 AM 69.6°F20.9°C 54.7°F12.6°C 59% 8.3 mph SSW13.4 kmh SSW 9.1 mph14.6 kmh 29.83 in1010.2 mb 0.00 in0.0 mm 0.00 in0.0 mm 0.00 in0.0 mm
11:30 AM 68.5°F20.3°C 53.2°F11.8°C 58% 9.8 mph S15.8 kmh S 9.1 mph14.6 kmh 29.83 in1010.2 mb 0.00 in0.0 mm 0.00 in0.0 mm 0.00 in0.0 mm
11:40 AM 68.9°F20.5°C 54.9°F12.7°C 61% 6.8 mph SSW10.9 kmh SSW 10.8 mph17.4 kmh 29.82 in1009.8 mb 0.00 in0.0 mm 0.00 in0.0 mm 0.00 in0.0 mm
11:50 AM 70.2°F21.2°C 55.2°F12.9°C 59% 10.1 mph SSE16.3 kmh SSE 10.8 mph17.4 kmh 29.82 in1009.8 mb 0.00 in0.0 mm 0.00 in0.0 mm 0.00 in0.0 mm
12:00 PM 70.3°F21.3°C 53.9°F12.2°C 56% 11.9 mph S19.2 kmh S 11.8 mph19.0 kmh 29.82 in1009.8 mb 0.00 in0.0 mm 0.00 in0.0 mm 0.00 in0.0 mm
12:10 PM 69.8°F21.0°C 53.9°F12.2°C 57% 12.3 mph SSW19.8 kmh SSW 10.1 mph16.3 kmh 29.82 in1009.8 mb 0.00 in0.0 mm 0.00 in0.0 mm 0.00 in0.0 mm
12:20 PM 69.1°F20.6°C 53.2°F11.8°C 57% 11.7 mph SSE18.8 kmh SSE 13.3 mph21.4 kmh 29.82 in1009.8 mb 0.00 in0.0 mm 0.00 in0.0 mm 0.00 in0.0 mm
12:30 PM 68.7°F20.4°C 51.4°F10.8°C 54% 12.0 mph S19.3 kmh S 13.3 mph21.4 kmh 29.82 in1009.8 mb 0.00 in0.0 mm 0.00 in0.0 mm 0.00 in0.0 mm
12:40 PM 69.8°F21.0°C 51.9°F11.1°C 53% 11.8 mph SSE19.0 kmh SSE 16.0 mph25.7 kmh 29.82 in1009.8 mb 0.04 in1.0 mm 0.24 in6.1 mm 0.04 in1.0 mm
12:50 PM 69.8°F21.0°C 51.4°F10.8°C 52% 12.3 mph SSE19.8 kmh SSE 15.0 mph24.1 kmh 29.82 in1009.8 mb 0.06 in1.5 mm 0.12 in3.0 mm 0.06 in1.5 mm
01:00 PM 68.7°F20.4°C 50.4°F10.2°C 52% 11.8 mph S19.0 kmh S 11.8 mph19.0 kmh 29.83 in1010.2 mb 0.06 in1.5 mm 0.00 in0.0 mm 0.06 in1.5 mm
01:10 PM 68.9°F20.5°C 50.5°F10.3°C 52% 11.3 mph S18.2 kmh S 11.8 mph19.0 kmh 29.82 in1009.8 mb 0.06 in1.5 mm 0.00 in0.0 mm 0.06 in1.5 mm
01:20 PM 70.0°F21.1°C 51.5°F10.8°C 52% 9.8 mph S15.8 kmh S 10.8 mph17.4 kmh 29.83 in1010.2 mb 0.06 in1.5 mm 0.00 in0.0 mm 0.06 in1.5 mm
01:30 PM 70.0°F21.1°C 51.0°F10.6°C 51% 11.3 mph SW18.2 kmh SW 14.3 mph23.0 kmh 29.83 in1010.2 mb 0.06 in1.5 mm 0.00 in0.0 mm 0.06 in1.5 mm
01:40 PM 69.3°F20.7°C 50.4°F10.2°C 51% 13.7 mph SSE22.0 kmh SSE 15.0 mph24.1 kmh 29.83 in1010.2 mb 0.02 in0.5 mm 0.00 in0.0 mm 0.06 in1.5 mm
01:50 PM 69.4°F20.8°C 50.5°F10.3°C 51% 14.3 mph SSW23.0 kmh SSW 16.0 mph25.7 kmh 29.82 in1009.8 mb 0.00 in0.0 mm 0.00 in0.0 mm 0.06 in1.5 mm
02:00 PM 68.7°F20.4°C 49.9°F9.9°C 51% 12.5 mph S20.1 kmh S 16.0 mph25.7 kmh 29.82 in1009.8 mb 0.00 in0.0 mm 0.00 in0.0 mm 0.06 in1.5 mm
02:10 PM 68.5°F20.3°C 50.2°F10.1°C 52% 13.6 mph SSW21.9 kmh SSW 11.8 mph19.0 kmh 29.82 in1009.8 mb 0.00 in0.0 mm 0.00 in0.0 mm 0.06 in1.5 mm
02:20 PM 69.1°F20.6°C 50.7°F10.4°C 52% 10.0 mph S16.1 kmh S 11.8 mph19.0 kmh 29.81 in1009.5 mb 0.00 in0.0 mm 0.00 in0.0 mm 0.06 in1.5 mm
02:30 PM 68.5°F20.3°C 49.7°F9.8°C 51% 11.8 mph S19.0 kmh S 14.3 mph23.0 kmh 29.81 in1009.5 mb 0.00 in0.0 mm 0.00 in0.0 mm 0.06 in1.5 mm
02:40 PM 67.8°F19.9°C 50.1°F10.1°C 53% 14.1 mph S22.7 kmh S 13.3 mph21.4 kmh 29.82 in1009.8 mb 0.00 in0.0 mm 0.00 in0.0 mm 0.06 in1.5 mm
02:50 PM 68.4°F20.2°C 50.6°F10.3°C 53% 11.3 mph SSE18.2 kmh SSE 11.8 mph19.0 kmh 29.81 in1009.5 mb 0.00 in0.0 mm 0.00 in0.0 mm 0.06 in1.5 mm
03:00 PM 68.2°F20.1°C 49.9°F9.9°C 52% 12.7 mph S20.4 kmh S 11.8 mph19.0 kmh 29.81 in1009.5 mb 0.00 in0.0 mm 0.00 in0.0 mm 0.06 in1.5 mm
03:10 PM 67.6°F19.8°C 50.4°F10.2°C 54% 11.2 mph SSE18.0 kmh SSE 12.5 mph20.1 kmh 29.81 in1009.5 mb 0.00 in0.0 mm 0.00 in0.0 mm 0.06 in1.5 mm
03:20 PM 67.5°F19.7°C 49.2°F9.6°C 52% 12.0 mph SSE19.3 kmh SSE 12.5 mph20.1 kmh 29.81 in1009.5 mb 0.00 in0.0 mm 0.00 in0.0 mm 0.06 in1.5 mm
03:30 PM 66.7°F19.3°C 50.5°F10.3°C 56% 11.9 mph S19.2 kmh S 12.5 mph20.1 kmh 29.81 in1009.5 mb 0.00 in0.0 mm 0.00 in0.0 mm 0.06 in1.5 mm
03:40 PM 66.4°F19.1°C 51.2°F10.7°C 58% 11.3 mph SE18.2 kmh SE 11.8 mph19.0 kmh 29.81 in1009.5 mb 0.00 in0.0 mm 0.00 in0.0 mm 0.06 in1.5 mm
03:50 PM 66.0°F18.9°C 50.8°F10.4°C 58% 9.3 mph SSW15.0 kmh SSW 10.1 mph16.3 kmh 29.80 in1009.1 mb 0.00 in0.0 mm 0.00 in0.0 mm 0.06 in1.5 mm
04:00 PM 65.8°F18.8°C 51.6°F10.9°C 60% 10.2 mph SE16.4 kmh SE 10.8 mph17.4 kmh 29.80 in1009.1 mb 0.00 in0.0 mm 0.00 in0.0 mm 0.06 in1.5 mm
04:10 PM 65.3°F18.5°C 51.5°F10.8°C 61% 10.7 mph SE17.2 kmh SE 9.1 mph14.6 kmh 29.80 in1009.1 mb 0.00 in0.0 mm 0.00 in0.0 mm 0.06 in1.5 mm
04:20 PM 64.9°F18.3°C 51.6°F10.9°C 62% 8.6 mph S13.8 kmh S 9.1 mph14.6 kmh 29.80 in1009.1 mb 0.00 in0.0 mm 0.00 in0.0 mm 0.06 in1.5 mm
04:30 PM 64.8°F18.2°C 51.9°F11.1°C 63% 8.6 mph S13.8 kmh S 9.1 mph14.6 kmh 29.80 in1009.1 mb 0.00 in0.0 mm 0.00 in0.0 mm 0.06 in1.5 mm
04:40 PM 64.6°F18.1°C 51.3°F10.7°C 62% 10.2 mph SE16.4 kmh SE 12.5 mph20.1 kmh 29.80 in1009.1 mb 0.00 in0.0 mm 0.00 in0.0 mm 0.06 in1.5 mm
04:50 PM 64.4°F18.0°C 51.5°F10.8°C 63% 8.7 mph S14.0 kmh S 10.1 mph16.3 kmh 29.80 in1009.1 mb 0.00 in0.0 mm 0.00 in0.0 mm 0.06 in1.5 mm
05:00 PM 64.2°F17.9°C 52.2°F11.2°C 65% 6.7 mph SE10.8 kmh SE 6.6 mph10.6 kmh 29.80 in1009.1 mb 0.00 in0.0 mm 0.00 in0.0 mm 0.06 in1.5 mm
05:10 PM 64.0°F17.8°C 52.4°F11.3°C 66% 8.5 mph SE13.7 kmh SE 10.1 mph16.3 kmh 29.79 in1008.8 mb 0.00 in0.0 mm 0.00 in0.0 mm 0.06 in1.5 mm
05:20 PM 63.9°F17.7°C 52.3°F11.3°C 66% 10.1 mph SSE16.3 kmh SSE 10.1 mph16.3 kmh 29.79 in1008.8 mb 0.00 in0.0 mm 0.00 in0.0 mm 0.06 in1.5 mm
05:30 PM 63.9°F17.7°C 51.9°F11.1°C 65% 11.8 mph SSE19.0 kmh SSE 12.5 mph20.1 kmh 29.79 in1008.8 mb 0.00 in0.0 mm 0.00 in0.0 mm 0.06 in1.5 mm
05:40 PM 63.9°F17.7°C 52.3°F11.3°C 66% 11.2 mph SE18.0 kmh SE 12.5 mph20.1 kmh 29.79 in1008.8 mb 0.00 in0.0 mm 0.00 in0.0 mm 0.06 in1.5 mm
05:50 PM 63.5°F17.5°C 51.9°F11.1°C 66% 11.0 mph S17.7 kmh S 10.1 mph16.3 kmh 29.80 in1009.1 mb 0.00 in0.0 mm 0.00 in0.0 mm 0.06 in1.5 mm
06:00 PM 63.1°F17.3°C 52.4°F11.3°C 68% 8.0 mph SSE12.9 kmh SSE 8.4 mph13.5 kmh 29.80 in1009.1 mb 0.00 in0.0 mm 0.00 in0.0 mm 0.06 in1.5 mm
06:10 PM 62.4°F16.9°C 53.6°F12.0°C 73% 6.1 mph ESE9.8 kmh ESE 6.6 mph10.6 kmh 29.80 in1009.1 mb 0.00 in0.0 mm 0.00 in0.0 mm 0.06 in1.5 mm
06:20 PM 61.7°F16.5°C 54.1°F12.3°C 76% 9.9 mph S15.9 kmh S 10.8 mph17.4 kmh 29.80 in1009.1 mb 0.00 in0.0 mm 0.00 in0.0 mm 0.06 in1.5 mm
06:30 PM 60.8°F16.0°C 54.2°F12.3°C 79% 10.8 mph S17.4 kmh S 11.8 mph19.0 kmh 29.81 in1009.5 mb 0.00 in0.0 mm 0.00 in0.0 mm 0.06 in1.5 mm
06:40 PM 60.4°F15.8°C 54.2°F12.3°C 80% 8.9 mph SSE14.3 kmh SSE 10.1 mph16.3 kmh 29.81 in1009.5 mb 0.00 in0.0 mm 0.00 in0.0 mm 0.06 in1.5 mm
06:50 PM 60.1°F15.6°C 53.9°F12.2°C 80% 12.5 mph S20.1 kmh S 13.3 mph21.4 kmh 29.81 in1009.5 mb 0.00 in0.0 mm 0.00 in0.0 mm 0.06 in1.5 mm
07:00 PM 59.7°F15.4°C 54.2°F12.3°C 82% 13.7 mph SSE22.0 kmh SSE 15.0 mph24.1 kmh 29.81 in1009.5 mb 0.00 in0.0 mm 0.00 in0.0 mm 0.06 in1.5 mm
07:10 PM 59.4°F15.2°C 54.5°F12.5°C 84% 12.7 mph SSE20.4 kmh SSE 12.5 mph20.1 kmh 29.81 in1009.5 mb 0.00 in0.0 mm 0.00 in0.0 mm 0.06 in1.5 mm
07:20 PM 59.0°F15.0°C 54.8°F12.7°C 86% 11.6 mph SSE18.7 kmh SSE 11.8 mph19.0 kmh 29.81 in1009.5 mb 0.00 in0.0 mm 0.00 in0.0 mm 0.06 in1.5 mm
07:30 PM 58.8°F14.9°C 55.3°F12.9°C 88% 10.4 mph SSE16.7 kmh SSE 12.5 mph20.1 kmh 29.80 in1009.1 mb 0.01 in0.3 mm 0.06 in1.5 mm 0.07 in1.8 mm
07:40 PM 58.8°F14.9°C 55.9°F13.3°C 90% 10.8 mph SE17.4 kmh SE 13.3 mph21.4 kmh 29.80 in1009.1 mb 0.01 in0.3 mm 0.00 in0.0 mm 0.07 in1.8 mm
07:50 PM 58.5°F14.7°C 55.5°F13.1°C 90% 12.5 mph S20.1 kmh S 14.3 mph23.0 kmh 29.80 in1009.1 mb 0.01 in0.3 mm 0.00 in0.0 mm 0.07 in1.8 mm
08:00 PM 58.1°F14.5°C 55.2°F12.9°C 90% 14.9 mph SSE24.0 kmh SSE 16.7 mph26.9 kmh 29.80 in1009.1 mb 0.02 in0.5 mm 0.01 in0.3 mm 0.08 in2.0 mm
08:10 PM 57.7°F14.3°C 55.1°F12.8°C 91% 11.0 mph SE17.7 kmh SE 12.5 mph20.1 kmh 29.79 in1008.8 mb 0.02 in0.5 mm 0.00 in0.0 mm 0.08 in2.0 mm
08:20 PM 57.6°F14.2°C 55.3°F12.9°C 92% 13.0 mph SSE20.9 kmh SSE 14.3 mph23.0 kmh 29.79 in1008.8 mb 0.02 in0.5 mm 0.00 in0.0 mm 0.08 in2.0 mm
08:30 PM 57.4°F14.1°C 55.1°F12.8°C 92% 11.0 mph SSE17.7 kmh SSE 10.8 mph17.4 kmh 29.79 in1008.8 mb 0.01 in0.3 mm 0.00 in0.0 mm 0.08 in2.0 mm
08:40 PM 57.4°F14.1°C 55.4°F13.0°C 93% 11.8 mph SE19.0 kmh SE 12.5 mph20.1 kmh 29.78 in1008.5 mb 0.01 in0.3 mm 0.00 in0.0 mm 0.08 in2.0 mm
08:50 PM 57.2°F14.0°C 55.2°F12.9°C 93% 9.6 mph E15.4 kmh E 11.8 mph19.0 kmh 29.78 in1008.5 mb 0.02 in0.5 mm 0.06 in1.5 mm 0.09 in2.3 mm
09:00 PM 57.4°F14.1°C 55.4°F13.0°C 93% 8.0 mph SSE12.9 kmh SSE 11.8 mph19.0 kmh 29.78 in1008.5 mb 0.01 in0.3 mm 0.00 in0.0 mm 0.09 in2.3 mm
09:10 PM 57.6°F14.2°C 55.6°F13.1°C 93% 8.0 mph ESE12.9 kmh ESE 11.8 mph19.0 kmh 29.77 in1008.1 mb 0.01 in0.3 mm 0.00 in0.0 mm 0.09 in2.3 mm
09:20 PM 57.7°F14.3°C 56.0°F13.3°C 94% 8.5 mph SSE13.7 kmh SSE 10.1 mph16.3 kmh 29.76 in1007.8 mb 0.01 in0.3 mm 0.00 in0.0 mm 0.09 in2.3 mm
09:30 PM 57.9°F14.4°C 56.2°F13.4°C 94% 12.0 mph SSE19.3 kmh SSE 14.3 mph23.0 kmh 29.76 in1007.8 mb 0.01 in0.3 mm 0.00 in0.0 mm 0.09 in2.3 mm
09:40 PM 57.9°F14.4°C 56.2°F13.4°C 94% 11.2 mph S18.0 kmh S 13.3 mph21.4 kmh 29.75 in1007.5 mb 0.01 in0.3 mm 0.00 in0.0 mm 0.09 in2.3 mm
09:50 PM 58.1°F14.5°C 56.4°F13.6°C 94% 11.4 mph SSE18.3 kmh SSE 11.8 mph19.0 kmh 29.75 in1007.5 mb 0.00 in0.0 mm 0.00 in0.0 mm 0.09 in2.3 mm
10:00 PM 58.1°F14.5°C 56.4°F13.6°C 94% 13.9 mph ESE22.4 kmh ESE 15.0 mph24.1 kmh 29.75 in1007.5 mb 0.00 in0.0 mm 0.00 in0.0 mm 0.09 in2.3 mm
10:10 PM 58.3°F14.6°C 56.3°F13.5°C 93% 11.4 mph E18.3 kmh E 9.1 mph14.6 kmh 29.75 in1007.5 mb 0.00 in0.0 mm 0.00 in0.0 mm 0.09 in2.3 mm
10:20 PM 58.3°F14.6°C 56.3°F13.5°C 93% 12.2 mph SSE19.6 kmh SSE 16.0 mph25.7 kmh 29.74 in1007.1 mb 0.00 in0.0 mm 0.00 in0.0 mm 0.09 in2.3 mm
10:30 PM 58.3°F14.6°C 56.3°F13.5°C 93% 13.6 mph SE21.9 kmh SE 13.3 mph21.4 kmh 29.74 in1007.1 mb 0.00 in0.0 mm 0.00 in0.0 mm 0.09 in2.3 mm
10:40 PM 58.5°F14.7°C 56.4°F13.6°C 93% 12.5 mph S20.1 kmh S 16.7 mph26.9 kmh 29.74 in1007.1 mb 0.00 in0.0 mm 0.00 in0.0 mm 0.09 in2.3 mm
10:50 PM 58.5°F14.7°C 56.4°F13.6°C 93% 13.7 mph S22.0 kmh S 17.5 mph28.2 kmh 29.73 in1006.8 mb 0.00 in0.0 mm 0.00 in0.0 mm 0.09 in2.3 mm
11:00 PM 58.5°F14.7°C 56.4°F13.6°C 93% 12.7 mph SE20.4 kmh SE 16.0 mph25.7 kmh 29.73 in1006.8 mb 0.00 in0.0 mm 0.00 in0.0 mm 0.09 in2.3 mm
11:10 PM 58.3°F14.6°C 56.3°F13.5°C 93% 15.4 mph SSE24.8 kmh SSE 18.5 mph29.8 kmh 29.73 in1006.8 mb 0.00 in0.0 mm 0.00 in0.0 mm 0.09 in2.3 mm
11:20 PM 58.3°F14.6°C 56.3°F13.5°C 93% 13.9 mph SSE22.4 kmh SSE 13.3 mph21.4 kmh 29.72 in1006.4 mb 0.00 in0.0 mm 0.00 in0.0 mm 0.09 in2.3 mm
11:30 PM 58.3°F14.6°C 56.6°F13.7°C 94% 12.2 mph SSE19.6 kmh SSE 15.0 mph24.1 kmh 29.72 in1006.4 mb 0.00 in0.0 mm 0.00 in0.0 mm 0.09 in2.3 mm
11:40 PM 58.3°F14.6°C 56.6°F13.7°C 94% 12.7 mph S20.4 kmh S 16.0 mph25.7 kmh 29.72 in1006.4 mb 0.00 in0.0 mm 0.00 in0.0 mm 0.09 in2.3 mm
11:50 PM 58.3°F14.6°C 56.9°F13.8°C 95% 10.4 mph SE16.7 kmh SE 11.8 mph19.0 kmh 29.72 in1006.4 mb 0.00 in0.0 mm 0.00 in0.0 mm 0.09 in2.3 mm